CTN342 LDZA-LQSA
Flight info
| Callsign | CTN342 |
|---|---|
| Flight time | 0h 30m |
| Altitude | 19000 |
| Route | TEBLI L187 KOMAR DCT MARIL DCT BOSNA |
| Aircraft | A319/M-SDE3FGHIRWY/LB1 |
Departure
| Time | 2026-04-18 11:26 |
|---|---|
| Airport | Zagreb Franjo Tuđman International Airport (LDZA) |
Arrival
| Time | 2026-04-18 11:57 |
|---|---|
| Airport | Sarajevo International Airport (LQSA) |
| Time | Latitude | Longitude | Altitude | Speed | Heading |
|---|---|---|---|---|---|
| 2026-04-18 10:54 | 45.74177 | 16.07840 | 359 ft | 0 kts | 136° |
| 2026-04-18 11:14 | 45.74177 | 16.07839 | 359 ft | 1 kts | 136° |
| 2026-04-18 11:14 | 45.74194 | 16.07817 | 366 ft | 4 kts | 136° |
| 2026-04-18 11:15 | 45.74213 | 16.07790 | 362 ft | 4 kts | 136° |
| 2026-04-18 11:15 | 45.74233 | 16.07764 | 363 ft | 4 kts | 148° |
| 2026-04-18 11:15 | 45.74251 | 16.07758 | 359 ft | 4 kts | 223° |
| 2026-04-18 11:15 | 45.74262 | 16.07773 | 359 ft | 0 kts | 226° |
| 2026-04-18 11:18 | 45.74261 | 16.07771 | 359 ft | 1 kts | 226° |
| 2026-04-18 11:18 | 45.74255 | 16.07762 | 359 ft | 2 kts | 226° |
| 2026-04-18 11:18 | 45.74242 | 16.07743 | 365 ft | 3 kts | 226° |
| 2026-04-18 11:19 | 45.74221 | 16.07710 | 359 ft | 6 kts | 226° |
| 2026-04-18 11:19 | 45.74188 | 16.07661 | 359 ft | 7 kts | 226° |
| 2026-04-18 11:19 | 45.74152 | 16.07606 | 359 ft | 8 kts | 226° |
| 2026-04-18 11:19 | 45.74112 | 16.07545 | 359 ft | 9 kts | 226° |
| 2026-04-18 11:20 | 45.74068 | 16.07478 | 363 ft | 9 kts | 230° |
| 2026-04-18 11:20 | 45.74076 | 16.07395 | 361 ft | 10 kts | 314° |
| 2026-04-18 11:20 | 45.74127 | 16.07325 | 366 ft | 11 kts | 316° |
| 2026-04-18 11:20 | 45.74184 | 16.07249 | 359 ft | 12 kts | 317° |
| 2026-04-18 11:21 | 45.74209 | 16.07149 | 359 ft | 12 kts | 243° |
| 2026-04-18 11:21 | 45.74152 | 16.07059 | 359 ft | 12 kts | 227° |
| 2026-04-18 11:21 | 45.74091 | 16.06965 | 363 ft | 13 kts | 226° |
| 2026-04-18 11:21 | 45.74027 | 16.06867 | 365 ft | 14 kts | 226° |
| 2026-04-18 11:22 | 45.73959 | 16.06765 | 359 ft | 14 kts | 227° |
| 2026-04-18 11:22 | 45.73889 | 16.06658 | 363 ft | 15 kts | 227° |
| 2026-04-18 11:22 | 45.73812 | 16.06542 | 363 ft | 17 kts | 226° |
| 2026-04-18 11:22 | 45.73728 | 16.06415 | 359 ft | 18 kts | 226° |
| 2026-04-18 11:23 | 45.73641 | 16.06281 | 359 ft | 19 kts | 227° |
| 2026-04-18 11:23 | 45.73550 | 16.06142 | 359 ft | 19 kts | 227° |
| 2026-04-18 11:23 | 45.73456 | 16.05998 | 363 ft | 20 kts | 226° |
| 2026-04-18 11:23 | 45.73358 | 16.05850 | 359 ft | 21 kts | 227° |
| 2026-04-18 11:24 | 45.73259 | 16.05699 | 362 ft | 21 kts | 227° |
| 2026-04-18 11:24 | 45.73156 | 16.05542 | 364 ft | 22 kts | 226° |
| 2026-04-18 11:24 | 45.73097 | 16.05393 | 359 ft | 17 kts | 270° |
| 2026-04-18 11:24 | 45.73123 | 16.05304 | 360 ft | 0 kts | 312° |
| 2026-04-18 11:25 | 45.73127 | 16.05297 | 361 ft | 3 kts | 315° |
| 2026-04-18 11:25 | 45.73161 | 16.05268 | 361 ft | 8 kts | 339° |
| 2026-04-18 11:25 | 45.73238 | 16.05280 | 366 ft | 14 kts | 31° |
| 2026-04-18 11:26 | 45.73329 | 16.05412 | 362 ft | 27 kts | 46° |
| 2026-04-18 11:26 | 45.73644 | 16.05890 | 361 ft | 104 kts | 46° |
| 2026-04-18 11:26 | 45.74285 | 16.06863 | 413 ft | 157 kts | 46° |
| 2026-04-18 11:26 | 45.75072 | 16.08034 | 995 ft | 166 kts | 49° |
| 2026-04-18 11:27 | 45.75685 | 16.09508 | 1562 ft | 185 kts | 66° |
| 2026-04-18 11:27 | 45.76024 | 16.11404 | 2081 ft | 210 kts | 83° |
| 2026-04-18 11:27 | 45.75956 | 16.13599 | 2646 ft | 232 kts | 100° |
| 2026-04-18 11:27 | 45.75573 | 16.15868 | 3720 ft | 237 kts | 101° |
| 2026-04-18 11:28 | 45.75211 | 16.18193 | 4716 ft | 241 kts | 99° |
| 2026-04-18 11:28 | 45.74856 | 16.20563 | 5584 ft | 248 kts | 99° |
| 2026-04-18 11:28 | 45.74495 | 16.22992 | 5896 ft | 250 kts | 98° |
| 2026-04-18 11:28 | 45.74137 | 16.25403 | 5987 ft | 251 kts | 98° |
| 2026-04-18 11:29 | 45.73771 | 16.27848 | 6008 ft | 251 kts | 98° |
| 2026-04-18 11:29 | 45.73188 | 16.30209 | 6004 ft | 254 kts | 115° |
| 2026-04-18 11:29 | 45.72137 | 16.32259 | 6003 ft | 259 kts | 132° |
| 2026-04-18 11:29 | 45.70815 | 16.34013 | 6002 ft | 259 kts | 135° |
| 2026-04-18 11:30 | 45.69493 | 16.35762 | 5988 ft | 258 kts | 135° |
| 2026-04-18 11:30 | 45.68175 | 16.37512 | 5990 ft | 258 kts | 134° |
| 2026-04-18 11:30 | 45.66780 | 16.39138 | 5989 ft | 261 kts | 146° |
| 2026-04-18 11:30 | 45.65084 | 16.40323 | 5993 ft | 280 kts | 155° |
| 2026-04-18 11:31 | 45.63244 | 16.41450 | 6410 ft | 294 kts | 155° |
| 2026-04-18 11:31 | 45.61377 | 16.42589 | 7523 ft | 292 kts | 155° |
| 2026-04-18 11:31 | 45.59502 | 16.43729 | 8535 ft | 295 kts | 155° |
| 2026-04-18 11:31 | 45.57605 | 16.44886 | 9528 ft | 299 kts | 154° |
| 2026-04-18 11:32 | 45.55665 | 16.46071 | 10219 ft | 312 kts | 154° |
| 2026-04-18 11:32 | 45.53600 | 16.47334 | 10545 ft | 332 kts | 155° |
| 2026-04-18 11:32 | 45.51455 | 16.48643 | 10729 ft | 340 kts | 155° |
| 2026-04-18 11:32 | 45.49260 | 16.49978 | 11585 ft | 343 kts | 155° |
| 2026-04-18 11:33 | 45.47054 | 16.51313 | 12472 ft | 347 kts | 155° |
| 2026-04-18 11:33 | 45.44819 | 16.52669 | 13341 ft | 351 kts | 155° |
| 2026-04-18 11:33 | 45.42553 | 16.54048 | 14151 ft | 357 kts | 155° |
| 2026-04-18 11:33 | 45.40250 | 16.55447 | 14856 ft | 362 kts | 155° |
| 2026-04-18 11:34 | 45.37916 | 16.56863 | 15559 ft | 367 kts | 155° |
| 2026-04-18 11:34 | 45.35550 | 16.58298 | 16245 ft | 372 kts | 155° |
| 2026-04-18 11:34 | 45.33150 | 16.59750 | 16910 ft | 378 kts | 155° |
| 2026-04-18 11:34 | 45.30713 | 16.61224 | 17595 ft | 383 kts | 155° |
| 2026-04-18 11:35 | 45.28274 | 16.62697 | 18242 ft | 389 kts | 155° |
| 2026-04-18 11:35 | 45.25769 | 16.64207 | 18841 ft | 394 kts | 155° |
| 2026-04-18 11:35 | 45.23230 | 16.65734 | 19089 ft | 397 kts | 155° |
| 2026-04-18 11:35 | 45.20706 | 16.67249 | 19151 ft | 387 kts | 155° |
| 2026-04-18 11:36 | 45.18255 | 16.68672 | 19166 ft | 376 kts | 156° |
| 2026-04-18 11:36 | 45.15823 | 16.69988 | 19169 ft | 373 kts | 158° |
| 2026-04-18 11:36 | 45.13388 | 16.71253 | 19167 ft | 373 kts | 158° |
| 2026-04-18 11:36 | 45.10949 | 16.72504 | 19186 ft | 373 kts | 158° |
| 2026-04-18 11:37 | 45.08513 | 16.73754 | 19164 ft | 372 kts | 158° |
| 2026-04-18 11:37 | 45.06081 | 16.75012 | 19162 ft | 372 kts | 158° |
| 2026-04-18 11:37 | 45.03654 | 16.76281 | 19159 ft | 372 kts | 158° |
| 2026-04-18 11:37 | 45.01225 | 16.77558 | 19161 ft | 372 kts | 157° |
| 2026-04-18 11:38 | 44.98799 | 16.78844 | 19155 ft | 371 kts | 156° |
| 2026-04-18 11:38 | 44.96510 | 16.80483 | 19160 ft | 368 kts | 144° |
| 2026-04-18 11:38 | 44.94506 | 16.82688 | 19159 ft | 364 kts | 132° |
| 2026-04-18 11:38 | 44.92818 | 16.85321 | 19158 ft | 361 kts | 126° |
| 2026-04-18 11:39 | 44.91188 | 16.88019 | 19158 ft | 361 kts | 126° |
| 2026-04-18 11:39 | 44.89570 | 16.90673 | 19148 ft | 362 kts | 127° |
| 2026-04-18 11:39 | 44.87927 | 16.93356 | 19149 ft | 362 kts | 127° |
| 2026-04-18 11:39 | 44.86281 | 16.96040 | 19148 ft | 362 kts | 127° |
| 2026-04-18 11:40 | 44.84635 | 16.98726 | 19171 ft | 362 kts | 127° |
| 2026-04-18 11:40 | 44.82989 | 17.01417 | 19174 ft | 362 kts | 127° |
| 2026-04-18 11:40 | 44.81349 | 17.04103 | 19174 ft | 362 kts | 127° |
| 2026-04-18 11:40 | 44.79708 | 17.06787 | 19175 ft | 362 kts | 127° |
| 2026-04-18 11:41 | 44.78063 | 17.09468 | 19171 ft | 361 kts | 127° |
| 2026-04-18 11:41 | 44.76416 | 17.12143 | 19169 ft | 361 kts | 127° |
| 2026-04-18 11:41 | 44.74770 | 17.14813 | 19172 ft | 361 kts | 127° |
| 2026-04-18 11:41 | 44.73125 | 17.17485 | 19171 ft | 361 kts | 127° |
| 2026-04-18 11:42 | 44.71481 | 17.20152 | 19161 ft | 361 kts | 127° |
| 2026-04-18 11:42 | 44.69833 | 17.22818 | 19163 ft | 361 kts | 127° |
| 2026-04-18 11:42 | 44.68183 | 17.25482 | 19165 ft | 361 kts | 127° |
| 2026-04-18 11:42 | 44.66534 | 17.28145 | 19181 ft | 361 kts | 127° |
| 2026-04-18 11:43 | 44.64889 | 17.30807 | 19184 ft | 361 kts | 127° |
| 2026-04-18 11:43 | 44.63245 | 17.33465 | 19179 ft | 360 kts | 127° |
| 2026-04-18 11:43 | 44.61607 | 17.36125 | 19177 ft | 360 kts | 127° |
| 2026-04-18 11:43 | 44.59976 | 17.38791 | 19175 ft | 360 kts | 127° |
| 2026-04-18 11:44 | 44.58350 | 17.41453 | 19170 ft | 359 kts | 127° |
| 2026-04-18 11:44 | 44.56731 | 17.44101 | 19011 ft | 355 kts | 127° |
| 2026-04-18 11:44 | 44.55135 | 17.46702 | 18772 ft | 350 kts | 127° |
| 2026-04-18 11:44 | 44.53552 | 17.49274 | 18538 ft | 348 kts | 127° |
| 2026-04-18 11:45 | 44.51998 | 17.51796 | 18284 ft | 346 kts | 127° |
| 2026-04-18 11:45 | 44.50409 | 17.54369 | 18018 ft | 344 kts | 127° |
| 2026-04-18 11:45 | 44.49376 | 17.56042 | 17841 ft | 342 kts | 127° |
| 2026-04-18 11:45 | 44.47321 | 17.59375 | 17476 ft | 340 kts | 128° |
| 2026-04-18 11:46 | 44.46278 | 17.61064 | 17302 ft | 339 kts | 127° |
| 2026-04-18 11:46 | 44.44239 | 17.64361 | 16958 ft | 337 kts | 128° |
| 2026-04-18 11:46 | 44.42717 | 17.66817 | 16660 ft | 332 kts | 127° |
| 2026-04-18 11:46 | 44.41208 | 17.69255 | 16275 ft | 331 kts | 127° |
| 2026-04-18 11:47 | 44.40189 | 17.70903 | 16012 ft | 331 kts | 127° |
| 2026-04-18 11:47 | 44.38192 | 17.74120 | 15499 ft | 331 kts | 129° |
| 2026-04-18 11:47 | 44.37060 | 17.75618 | 15235 ft | 333 kts | 138° |
| 2026-04-18 11:47 | 44.34457 | 17.77859 | 14757 ft | 333 kts | 150° |
| 2026-04-18 11:48 | 44.33067 | 17.78853 | 14502 ft | 332 kts | 150° |
| 2026-04-18 11:48 | 44.31016 | 17.80325 | 14133 ft | 331 kts | 150° |
| 2026-04-18 11:48 | 44.28968 | 17.81797 | 13741 ft | 330 kts | 150° |
| 2026-04-18 11:48 | 44.26934 | 17.83261 | 13352 ft | 328 kts | 149° |
| 2026-04-18 11:49 | 44.24916 | 17.84712 | 12983 ft | 325 kts | 149° |
| 2026-04-18 11:49 | 44.22915 | 17.86153 | 12609 ft | 323 kts | 150° |
| 2026-04-18 11:49 | 44.20927 | 17.87584 | 12232 ft | 320 kts | 149° |
| 2026-04-18 11:49 | 44.18978 | 17.88982 | 11822 ft | 319 kts | 149° |
| 2026-04-18 11:50 | 44.16974 | 17.90416 | 11402 ft | 319 kts | 150° |
| 2026-04-18 11:50 | 44.15029 | 17.91810 | 11020 ft | 318 kts | 150° |
| 2026-04-18 11:50 | 44.13070 | 17.93214 | 10634 ft | 316 kts | 150° |
| 2026-04-18 11:50 | 44.11115 | 17.94612 | 10246 ft | 316 kts | 149° |
| 2026-04-18 11:51 | 44.09159 | 17.96013 | 9813 ft | 316 kts | 149° |
| 2026-04-18 11:51 | 44.07216 | 17.97403 | 9408 ft | 312 kts | 149° |
| 2026-04-18 11:51 | 44.05291 | 17.98778 | 8995 ft | 310 kts | 150° |
| 2026-04-18 11:51 | 44.03384 | 18.00139 | 8581 ft | 307 kts | 150° |
| 2026-04-18 11:52 | 44.01457 | 18.01391 | 8169 ft | 306 kts | 158° |
| 2026-04-18 11:52 | 43.99444 | 18.02332 | 7728 ft | 305 kts | 160° |
| 2026-04-18 11:52 | 43.97437 | 18.03269 | 7300 ft | 303 kts | 160° |
| 2026-04-18 11:52 | 43.95445 | 18.04205 | 6858 ft | 302 kts | 160° |
| 2026-04-18 11:53 | 43.93559 | 18.05437 | 6404 ft | 298 kts | 140° |
| 2026-04-18 11:53 | 43.92119 | 18.07394 | 5948 ft | 283 kts | 120° |
| 2026-04-18 11:53 | 43.91215 | 18.09670 | 5789 ft | 259 kts | 110° |
| 2026-04-18 11:53 | 43.90400 | 18.11873 | 5193 ft | 258 kts | 113° |
| 2026-04-18 11:54 | 43.89575 | 18.14079 | 4672 ft | 256 kts | 112° |
| 2026-04-18 11:54 | 43.88768 | 18.16238 | 4276 ft | 247 kts | 115° |
| 2026-04-18 11:54 | 43.88007 | 18.18279 | 3923 ft | 230 kts | 116° |
| 2026-04-18 11:54 | 43.87302 | 18.20171 | 3621 ft | 213 kts | 114° |
| 2026-04-18 11:55 | 43.86644 | 18.21934 | 3350 ft | 201 kts | 111° |
| 2026-04-18 11:55 | 43.86019 | 18.23611 | 3077 ft | 191 kts | 110° |
| 2026-04-18 11:55 | 43.85423 | 18.25205 | 2809 ft | 182 kts | 109° |
| 2026-04-18 11:55 | 43.84881 | 18.26646 | 2570 ft | 160 kts | 108° |
| 2026-04-18 11:56 | 43.84397 | 18.27945 | 2349 ft | 145 kts | 110° |
| 2026-04-18 11:56 | 43.83947 | 18.29152 | 2146 ft | 138 kts | 112° |
| 2026-04-18 11:56 | 43.83510 | 18.30327 | 1945 ft | 138 kts | 108° |
| 2026-04-18 11:56 | 43.83073 | 18.31505 | 1751 ft | 137 kts | 109° |
| 2026-04-18 11:57 | 43.82674 | 18.32611 | 1675 ft | 98 kts | 115° |
| 2026-04-18 11:57 | 43.82470 | 18.33122 | 1690 ft | 48 kts | 117° |
| 2026-04-18 11:57 | 43.82340 | 18.33467 | 1695 ft | 28 kts | 118° |
| 2026-04-18 11:57 | 43.82280 | 18.33660 | 1697 ft | 13 kts | 70° |
| 2026-04-18 11:58 | 43.82368 | 18.33661 | 1690 ft | 16 kts | 345° |
| 2026-04-18 11:58 | 43.82376 | 18.33658 | 1689 ft | 0 kts | 345° |
| 2026-04-18 11:58 | 43.82396 | 18.33650 | 1690 ft | 6 kts | 345° |
| 2026-04-18 11:59 | 43.82441 | 18.33642 | 1687 ft | 9 kts | 2° |
| 2026-04-18 11:59 | 43.82477 | 18.33662 | 1685 ft | 5 kts | 25° |
| 2026-04-18 11:59 | 43.82502 | 18.33679 | 1689 ft | 1 kts | 23° |
| 2026-04-18 11:59 | 43.82514 | 18.33688 | 1689 ft | 3 kts | 27° |
| 2026-04-18 12:00 | 43.82517 | 18.33689 | 1685 ft | 0 kts | 27° |